createdAt,value
2022-11-16T00:01:02.277Z,6.25
2022-11-16T00:03:48.763Z,6.53
2022-11-16T00:06:34.135Z,6.63
2022-11-16T00:09:18.970Z,6.75
2022-11-16T00:12:06.174Z,6.75
2022-11-16T00:14:51.065Z,7.20
2022-11-16T00:17:35.930Z,6.80
2022-11-16T00:20:20.873Z,7.40
2022-11-16T00:23:05.643Z,6.78
2022-11-16T00:25:51.209Z,7.47
2022-11-16T00:28:36.599Z,7.40
2022-11-16T00:31:22.621Z,7.35
2022-11-16T00:34:07.826Z,6.97
2022-11-16T00:36:52.688Z,6.93
2022-11-16T00:39:37.555Z,7.37
2022-11-16T00:42:22.479Z,7.65
2022-11-16T00:45:08.191Z,7.20
2022-11-16T00:47:59.193Z,7.50
2022-11-16T00:50:46.070Z,7.80
2022-11-16T00:53:30.955Z,7.35
2022-11-16T00:56:16.032Z,7.65
2022-11-16T00:59:00.910Z,7.65
2022-11-16T01:01:46.176Z,7.88
2022-11-16T01:04:31.459Z,7.65
2022-11-16T01:07:16.523Z,7.88
2022-11-16T01:10:04.856Z,7.90
2022-11-16T01:12:51.225Z,8.23
2022-11-16T01:15:36.396Z,8.18
2022-11-16T01:18:21.246Z,8.07
2022-11-16T01:21:06.977Z,7.90
2022-11-16T01:23:52.344Z,7.70
2022-11-16T01:26:37.525Z,8.10
2022-11-16T01:29:28.128Z,7.97
2022-11-16T01:32:13.394Z,7.78
2022-11-16T01:34:58.804Z,8.05
2022-11-16T01:37:44.548Z,7.85
2022-11-16T01:40:29.600Z,8.15
2022-11-16T01:43:24.317Z,8.10
2022-11-16T01:46:09.702Z,8.60
2022-11-16T01:49:02.801Z,8.73
2022-11-16T01:51:55.244Z,8.15
2022-11-16T01:54:43.802Z,9.35
2022-11-16T01:57:33.777Z,8.95
2022-11-16T02:00:19.055Z,8.80
2022-11-16T02:03:03.812Z,8.40
2022-11-16T02:05:54.708Z,9.38
2022-11-16T02:09:17.794Z,8.73
2022-11-16T02:12:36.918Z,8.50
2022-11-16T02:15:29.256Z,9.38
2022-11-16T02:18:29.149Z,8.50
2022-11-16T02:21:26.147Z,8.73
2022-11-16T02:24:17.116Z,9.13
2022-11-16T02:27:23.326Z,9.40
2022-11-16T02:30:08.437Z,9.23
2022-11-16T02:33:01.466Z,9.15
2022-11-16T02:35:53.122Z,8.93
2022-11-16T02:38:42.788Z,8.80
2022-11-16T02:41:31.841Z,8.73
2022-11-16T02:44:25.718Z,8.52
2022-11-16T02:47:16.942Z,9.40
2022-11-16T02:50:09.640Z,8.83
2022-11-16T02:52:54.573Z,9.55
2022-11-16T02:55:39.741Z,10.00
2022-11-16T02:58:26.120Z,9.73
2022-11-16T03:01:29.295Z,10.27
2022-11-16T03:04:31.268Z,9.85
2022-11-16T03:07:21.321Z,10.30
2022-11-16T03:10:07.332Z,11.27
2022-11-16T03:12:52.789Z,10.70
2022-11-16T03:15:41.395Z,9.97
2022-11-16T03:18:28.247Z,10.80
2022-11-16T03:21:24.850Z,10.52
2022-11-16T03:24:10.379Z,10.52
2022-11-16T03:27:04.297Z,10.93
2022-11-16T03:30:23.790Z,11.10
2022-11-16T03:33:27.491Z,11.80
2022-11-16T03:36:31.564Z,11.60
2022-11-16T03:39:25.278Z,11.68
2022-11-16T03:42:13.076Z,11.73
2022-11-16T03:44:58.415Z,11.20
2022-11-16T03:47:43.422Z,11.37
2022-11-16T03:50:29.565Z,11.85
2022-11-16T03:53:14.400Z,12.83
2022-11-16T03:55:59.286Z,11.90
2022-11-16T03:58:44.192Z,13.10
2022-11-16T04:01:29.211Z,12.63
2022-11-16T04:04:14.648Z,12.20
2022-11-16T04:06:59.959Z,13.15
2022-11-16T04:09:44.856Z,12.25
2022-11-16T04:12:29.912Z,12.73
2022-11-16T04:15:15.184Z,11.83
2022-11-16T04:18:00.044Z,13.52
2022-11-16T04:20:45.351Z,12.40
2022-11-16T04:23:30.328Z,12.73
2022-11-16T04:26:15.434Z,12.82
2022-11-16T04:29:00.561Z,13.82
2022-11-16T04:31:45.375Z,13.40
2022-11-16T04:34:30.478Z,13.43
2022-11-16T04:37:18.015Z,14.90
2022-11-16T04:40:04.289Z,13.40
2022-11-16T04:42:52.523Z,15.25
2022-11-16T04:45:37.878Z,15.43
2022-11-16T04:48:22.963Z,15.15
2022-11-16T04:51:08.345Z,15.90
2022-11-16T04:53:53.207Z,16.25
2022-11-16T04:56:38.281Z,16.73
2022-11-16T04:59:23.095Z,16.37
2022-11-16T05:02:08.822Z,16.93
2022-11-16T05:04:54.208Z,15.82
2022-11-16T05:07:39.818Z,16.63
2022-11-16T05:10:25.154Z,16.65
2022-11-16T05:13:09.960Z,16.40
2022-11-16T05:15:54.794Z,18.17
2022-11-16T05:18:39.529Z,18.43
2022-11-16T05:21:24.941Z,19.20
2022-11-16T05:24:10.027Z,19.87
2022-11-16T05:26:55.883Z,19.07
2022-11-16T05:29:41.119Z,18.65
2022-11-16T05:32:27.622Z,17.88
2022-11-16T05:35:12.883Z,19.40
2022-11-16T05:37:58.227Z,19.07
2022-11-16T05:40:43.562Z,18.30
2022-11-16T05:43:29.722Z,18.93
2022-11-16T05:46:14.529Z,20.67
2022-11-16T05:48:59.669Z,19.50
2022-11-16T05:51:46.195Z,20.30
2022-11-16T05:54:31.275Z,20.23
2022-11-16T05:57:16.148Z,22.13
2022-11-16T06:00:01.091Z,21.65
2022-11-16T06:02:46.040Z,20.90
2022-11-16T06:05:34.083Z,22.13
2022-11-16T06:08:21.158Z,23.00
2022-11-16T06:11:09.049Z,23.13
2022-11-16T06:13:54.612Z,21.38
2022-11-16T06:16:39.872Z,21.50
2022-11-16T06:19:29.599Z,20.30
2022-11-16T06:22:17.305Z,21.60
2022-11-16T06:25:02.850Z,20.80
2022-11-16T06:27:48.117Z,21.63
2022-11-16T06:30:33.626Z,20.23
2022-11-16T06:33:19.392Z,20.87
2022-11-16T06:36:04.730Z,20.37
2022-11-16T06:38:49.817Z,19.13
2022-11-16T06:41:40.185Z,20.87
2022-11-16T06:44:26.498Z,21.80
2022-11-16T06:47:11.729Z,20.07
2022-11-16T06:49:57.213Z,26.93
2022-11-16T06:52:42.458Z,21.77
2022-11-16T06:55:28.693Z,19.55
2022-11-16T06:58:14.137Z,20.57
2022-11-16T07:01:06.346Z,21.33
2022-11-16T07:03:51.546Z,18.83
2022-11-16T07:06:36.941Z,19.67
2022-11-16T07:09:21.713Z,20.30
2022-11-16T07:12:07.037Z,19.63
2022-11-16T07:14:51.934Z,20.47
2022-11-16T07:17:37.230Z,19.83
2022-11-16T07:20:22.248Z,20.07
2022-11-16T07:23:11.364Z,19.93
2022-11-16T07:26:03.733Z,20.08
2022-11-16T07:28:49.171Z,19.63
2022-11-16T07:31:34.173Z,21.40
2022-11-16T07:34:18.889Z,19.73
2022-11-16T07:37:03.779Z,21.50
2022-11-16T07:39:49.140Z,21.70
2022-11-16T07:42:34.062Z,20.00
2022-11-16T07:45:18.896Z,18.87
2022-11-16T07:48:04.823Z,18.93
2022-11-16T07:50:50.001Z,19.20
2022-11-16T07:53:35.938Z,20.10
2022-11-16T07:56:21.898Z,22.35
2022-11-16T07:59:07.236Z,21.10
2022-11-16T08:01:52.579Z,20.25
2022-11-16T08:04:37.834Z,19.75
2022-11-16T08:07:22.853Z,18.52
2022-11-16T08:10:08.470Z,18.23
2022-11-16T08:12:53.666Z,19.10
2022-11-16T08:15:38.469Z,17.63
2022-11-16T08:20:19.595Z,16.90
2022-11-16T08:23:05.023Z,16.20
2022-11-16T08:25:49.914Z,16.75
2022-11-16T08:28:37.153Z,16.10
2022-11-16T08:31:27.961Z,16.17
2022-11-16T08:34:13.209Z,15.48
2022-11-16T08:36:58.042Z,20.13
2022-11-16T08:39:42.931Z,16.63
2022-11-16T08:42:27.880Z,15.63
2022-11-16T08:45:12.752Z,16.38
2022-11-16T08:48:03.590Z,15.55
2022-11-16T08:51:15.873Z,14.77
2022-11-16T08:53:58.403Z,15.00
2022-11-16T08:56:43.778Z,15.35
2022-11-16T08:59:29.260Z,15.43
2022-11-16T09:02:14.279Z,13.27
2022-11-16T09:04:59.785Z,13.40
2022-11-16T09:07:45.148Z,14.75
2022-11-16T09:10:30.585Z,15.70
2022-11-16T09:13:16.674Z,12.95
2022-11-16T09:16:03.848Z,12.43
2022-11-16T09:18:51.039Z,58.00
2022-11-16T09:21:37.149Z,12.50
2022-11-16T09:24:22.526Z,12.05
2022-11-16T09:27:08.247Z,15.13
2022-11-16T09:29:53.451Z,12.77
2022-11-16T09:32:38.867Z,11.43
2022-11-16T09:35:23.948Z,10.55
2022-11-16T09:38:10.057Z,8.73
2022-11-16T09:40:56.358Z,9.68
2022-11-16T09:44:00.023Z,9.15
2022-11-16T09:46:49.537Z,8.85
2022-11-16T09:49:42.343Z,8.85
2022-11-16T09:52:33.529Z,8.00
2022-11-16T09:55:30.541Z,7.68
2022-11-16T09:58:24.922Z,7.82
2022-11-16T10:01:31.044Z,7.50
2022-11-16T10:04:41.818Z,7.10
2022-11-16T10:07:30.382Z,6.78
2022-11-16T10:10:18.806Z,6.70
2022-11-16T10:13:17.254Z,6.47
2022-11-16T10:16:27.483Z,6.18
2022-11-16T10:19:37.166Z,6.55
2022-11-16T10:22:34.948Z,5.57
2022-11-16T10:25:29.339Z,6.40
2022-11-16T10:28:20.627Z,5.38
2022-11-16T10:31:22.096Z,5.45
2022-11-16T10:34:17.240Z,5.20
2022-11-16T10:37:04.737Z,4.40
2022-11-16T10:39:51.825Z,4.40
2022-11-16T10:42:37.626Z,4.55
2022-11-16T10:45:28.975Z,4.30
2022-11-16T10:48:49.627Z,4.07
2022-11-16T10:51:34.953Z,4.80
2022-11-16T10:54:20.348Z,4.72
2022-11-16T10:57:07.638Z,4.23
2022-11-16T10:59:54.254Z,4.10
2022-11-16T11:02:48.302Z,4.30
2022-11-16T11:05:35.557Z,4.63
2022-11-16T11:08:29.884Z,4.28
2022-11-16T11:11:21.839Z,4.85
2022-11-16T11:14:11.594Z,4.93
2022-11-16T11:17:10.691Z,4.95
2022-11-16T11:20:03.069Z,4.50
2022-11-16T11:22:55.042Z,4.88
2022-11-16T11:26:00.591Z,4.65
2022-11-16T11:28:49.366Z,5.25
2022-11-16T11:31:42.465Z,4.40
2022-11-16T11:34:30.177Z,4.20
2022-11-16T11:37:20.079Z,4.07
2022-11-16T11:40:29.253Z,4.15
2022-11-16T11:43:25.122Z,4.28
2022-11-16T11:46:20.656Z,4.10
2022-11-16T11:49:38.280Z,4.07
2022-11-16T11:52:42.201Z,5.55
2022-11-16T11:55:27.681Z,3.13
2022-11-16T11:58:18.607Z,3.15
2022-11-16T12:01:19.448Z,3.50
2022-11-16T12:04:34.957Z,3.00
2022-11-16T12:07:29.359Z,2.50
2022-11-16T12:10:39.466Z,2.95
2022-11-16T12:13:42.980Z,3.03
2022-11-16T12:16:53.487Z,2.58
2022-11-16T12:19:48.867Z,2.67
2022-11-16T12:23:03.789Z,2.70
2022-11-16T12:26:05.078Z,2.40
2022-11-16T12:28:59.391Z,2.50
2022-11-16T12:32:12.800Z,2.92
2022-11-16T12:35:32.384Z,2.97
2022-11-16T12:38:39.358Z,2.83
2022-11-16T12:41:49.560Z,3.13
2022-11-16T12:44:34.432Z,2.83
2022-11-16T12:47:41.014Z,3.13
2022-11-16T12:50:52.622Z,2.88
2022-11-16T12:54:06.462Z,3.15
2022-11-16T12:56:58.604Z,2.78
2022-11-16T12:59:50.090Z,2.90
2022-11-16T13:02:53.717Z,2.28
2022-11-16T13:05:42.189Z,2.58
2022-11-16T13:08:49.409Z,3.13
2022-11-16T13:11:42.322Z,2.60
2022-11-16T13:14:37.344Z,2.35
2022-11-16T13:17:33.198Z,2.40
2022-11-16T13:20:54.087Z,1.95
2022-11-16T13:24:12.663Z,2.30
2022-11-16T13:27:30.596Z,2.38
2022-11-16T13:30:37.930Z,2.20
2022-11-16T13:33:43.053Z,2.50
2022-11-16T13:36:38.163Z,2.00
2022-11-16T13:40:02.275Z,2.33
2022-11-16T13:43:16.470Z,2.17
2022-11-16T13:46:01.686Z,2.00
2022-11-16T13:48:47.626Z,2.50
2022-11-16T13:51:33.131Z,2.47
2022-11-16T13:54:45.663Z,2.33
2022-11-16T13:57:34.335Z,2.55
2022-11-16T14:00:26.641Z,2.00
2022-11-16T14:03:11.912Z,2.20
2022-11-16T14:05:56.884Z,2.40
2022-11-16T14:09:00.477Z,2.30
2022-11-16T14:11:45.630Z,2.30
2022-11-16T14:15:03.898Z,2.20
2022-11-16T14:18:02.508Z,2.30
2022-11-16T14:21:02.630Z,2.40
2022-11-16T14:23:53.889Z,2.13
2022-11-16T14:26:44.880Z,2.10
2022-11-16T14:30:31.451Z,2.30
2022-11-16T14:33:30.712Z,2.55
2022-11-16T14:36:15.765Z,2.25
2022-11-16T14:39:15.872Z,2.30
2022-11-16T14:42:04.591Z,2.35
2022-11-16T14:44:57.824Z,2.17
2022-11-16T14:47:43.415Z,2.30
2022-11-16T14:50:28.310Z,2.30
2022-11-16T14:53:17.773Z,2.65
2022-11-16T14:56:12.072Z,2.75
2022-11-16T14:59:02.365Z,2.70
2022-11-16T15:01:47.524Z,2.88
2022-11-16T15:04:32.767Z,2.65
2022-11-16T15:07:19.971Z,2.50
2022-11-16T15:10:05.979Z,3.40
2022-11-16T15:12:53.749Z,4.00
2022-11-16T15:15:38.718Z,4.30
2022-11-16T15:18:24.077Z,3.65
2022-11-16T15:21:22.279Z,3.90
2022-11-16T15:24:29.508Z,4.15
2022-11-16T15:27:33.643Z,3.33
2022-11-16T15:30:21.165Z,3.17
2022-11-16T15:33:17.978Z,5.57
2022-11-16T15:36:23.195Z,6.45
2022-11-16T15:39:16.413Z,5.65
2022-11-16T15:42:04.296Z,4.63
2022-11-16T15:44:50.769Z,5.90
2022-11-16T15:47:37.295Z,4.78
2022-11-16T15:50:23.477Z,5.82
2022-11-16T15:53:33.693Z,8.10
2022-11-16T15:56:21.528Z,7.75
2022-11-16T15:59:12.891Z,7.90
2022-11-16T16:01:58.284Z,12.05
2022-11-16T16:04:43.493Z,15.88
2022-11-16T16:07:39.776Z,11.90
2022-11-16T16:10:26.406Z,9.70
2022-11-16T16:13:24.762Z,9.68
2022-11-16T16:16:26.076Z,7.10
2022-11-16T16:19:34.732Z,6.40
2022-11-16T16:22:26.880Z,8.35
2022-11-16T16:25:32.039Z,18.20
2022-11-16T16:28:16.974Z,20.92
2022-11-16T16:31:02.304Z,18.03
2022-11-16T16:33:47.715Z,12.33
2022-11-16T16:36:32.656Z,9.90
2022-11-16T16:39:18.045Z,9.93
2022-11-16T16:42:03.405Z,8.83
2022-11-16T16:44:49.560Z,8.30
2022-11-16T16:47:34.897Z,7.87
2022-11-16T16:50:19.764Z,8.30
2022-11-16T16:53:05.284Z,7.37
2022-11-16T16:55:50.545Z,6.67
2022-11-16T16:58:35.477Z,6.77
2022-11-16T17:01:20.614Z,6.90
2022-11-16T17:04:06.315Z,7.23
2022-11-16T17:06:52.617Z,9.43
2022-11-16T17:09:37.852Z,7.80
2022-11-16T17:12:22.829Z,8.20
2022-11-16T17:15:08.546Z,7.40
2022-11-16T17:17:53.414Z,6.07
2022-11-16T17:20:41.375Z,5.93
2022-11-16T17:23:30.362Z,8.00
2022-11-16T17:26:15.888Z,7.40
2022-11-16T17:29:00.923Z,9.40
2022-11-16T17:31:47.354Z,8.50
2022-11-16T17:34:32.513Z,7.93
2022-11-16T17:37:17.555Z,5.90
2022-11-16T17:40:02.437Z,5.97
2022-11-16T17:42:47.211Z,5.60
2022-11-16T17:45:32.256Z,6.93
2022-11-16T17:48:17.201Z,7.45
2022-11-16T17:51:02.786Z,6.90
2022-11-16T17:53:48.438Z,7.27
2022-11-16T17:56:33.860Z,6.68
2022-11-16T17:59:18.689Z,5.97
2022-11-16T18:02:03.686Z,6.60
2022-11-16T18:04:51.231Z,6.30
2022-11-16T18:07:36.768Z,7.20
2022-11-16T18:10:22.283Z,6.43
2022-11-16T18:13:07.584Z,7.20
2022-11-16T18:15:52.627Z,7.23
2022-11-16T18:18:38.434Z,8.67
2022-11-16T18:21:23.717Z,7.37
2022-11-16T18:24:09.560Z,7.03
2022-11-16T18:26:54.552Z,7.20
2022-11-16T18:29:39.946Z,7.13
2022-11-16T18:32:24.914Z,6.03
2022-11-16T18:35:09.753Z,6.70
2022-11-16T18:37:54.655Z,5.53
2022-11-16T18:40:40.555Z,5.80
2022-11-16T18:43:25.505Z,5.33
2022-11-16T18:46:10.455Z,5.80
2022-11-16T18:48:56.079Z,5.20
2022-11-16T18:51:41.487Z,5.47
2022-11-16T18:54:26.360Z,6.87
2022-11-16T18:57:11.466Z,7.40
2022-11-16T18:59:56.210Z,6.10
2022-11-16T19:02:41.179Z,5.83
2022-11-16T19:05:25.973Z,5.80
2022-11-16T19:08:10.887Z,6.50
2022-11-16T19:10:56.356Z,6.33
2022-11-16T19:13:43.097Z,6.10
2022-11-16T19:16:28.515Z,6.50
2022-11-16T19:19:14.040Z,5.73
2022-11-16T19:21:59.259Z,8.60
2022-11-16T19:24:44.211Z,7.60
2022-11-16T19:27:30.179Z,7.20
2022-11-16T19:30:16.842Z,8.30
2022-11-16T19:33:01.830Z,8.43
2022-11-16T19:35:46.711Z,7.47
2022-11-16T19:38:31.606Z,5.97
2022-11-16T19:41:18.705Z,5.10
2022-11-16T19:44:03.841Z,5.03
2022-11-16T19:46:48.747Z,4.93
2022-11-16T19:49:33.742Z,4.70
2022-11-16T19:52:19.308Z,5.10
2022-11-16T19:55:04.930Z,5.10
2022-11-16T19:57:49.842Z,5.20
2022-11-16T20:00:35.042Z,5.00
2022-11-16T20:03:20.325Z,5.30
2022-11-16T20:06:17.549Z,9.17
2022-11-16T20:09:05.710Z,5.67
2022-11-16T20:11:50.599Z,8.03
2022-11-16T20:14:35.605Z,5.50
2022-11-16T20:17:20.882Z,4.23
2022-11-16T20:20:06.198Z,4.83
2022-11-16T20:22:51.212Z,4.70
2022-11-16T20:25:41.021Z,4.30
2022-11-16T20:28:26.053Z,3.57
2022-11-16T20:31:15.730Z,3.93
2022-11-16T20:34:04.179Z,3.73
2022-11-16T20:36:49.376Z,4.33
2022-11-16T20:39:34.616Z,3.70
2022-11-16T20:42:19.459Z,4.20
2022-11-16T20:45:05.474Z,3.53
2022-11-16T20:47:50.454Z,3.90
2022-11-16T20:50:35.386Z,3.70
2022-11-16T20:53:20.449Z,4.30
2022-11-16T20:56:06.289Z,4.03
2022-11-16T20:58:51.589Z,4.20
2022-11-16T21:01:36.910Z,4.30
2022-11-16T21:04:21.938Z,4.50
2022-11-16T21:07:07.267Z,5.80
2022-11-16T21:09:52.630Z,6.33
2022-11-16T21:12:42.529Z,6.87
2022-11-16T21:15:28.223Z,6.40
2022-11-16T21:18:13.415Z,5.43
2022-11-16T21:20:59.392Z,4.97
2022-11-16T21:23:44.641Z,7.87
2022-11-16T21:26:31.563Z,8.33
2022-11-16T21:29:16.580Z,5.50
2022-11-16T21:32:01.512Z,4.17
2022-11-16T21:34:46.803Z,4.20
2022-11-16T21:37:31.639Z,4.10
2022-11-16T21:40:16.635Z,4.43
2022-11-16T21:43:02.099Z,3.93
2022-11-16T21:45:48.121Z,4.13
2022-11-16T21:48:33.959Z,4.53
2022-11-16T21:51:21.340Z,4.30
2022-11-16T21:54:06.872Z,3.90
2022-11-16T21:56:51.818Z,4.07
2022-11-16T21:59:36.737Z,4.00
2022-11-16T22:02:21.601Z,3.97
2022-11-16T22:05:07.317Z,3.80
2022-11-16T22:07:52.460Z,4.30
2022-11-16T22:10:38.141Z,4.40
2022-11-16T22:13:23.252Z,3.80
2022-11-16T22:16:13.479Z,4.00
2022-11-16T22:18:58.745Z,4.17
2022-11-16T22:21:43.735Z,4.20
2022-11-16T22:24:28.598Z,4.07
2022-11-16T22:27:18.497Z,4.37
2022-11-16T22:30:03.475Z,9.13
2022-11-16T22:32:48.862Z,7.93
2022-11-16T22:35:33.828Z,9.80
2022-11-16T22:38:18.801Z,6.43
2022-11-16T22:41:04.331Z,4.40
2022-11-16T22:43:49.772Z,4.37
2022-11-16T22:46:34.685Z,4.07
2022-11-16T22:49:19.554Z,4.47
2022-11-16T22:52:04.589Z,4.60
2022-11-16T22:54:49.741Z,4.60
2022-11-16T22:57:34.813Z,4.27
2022-11-16T23:00:20.034Z,4.33
2022-11-16T23:03:06.203Z,3.97
2022-11-16T23:05:51.463Z,4.10
2022-11-16T23:08:36.603Z,3.90
2022-11-16T23:11:23.812Z,4.20
2022-11-16T23:14:16.975Z,4.03
2022-11-16T23:17:03.284Z,4.07
2022-11-16T23:19:48.240Z,4.10
2022-11-16T23:22:33.661Z,4.03
2022-11-16T23:25:18.577Z,3.37
2022-11-16T23:28:15.366Z,3.27
2022-11-16T23:31:00.401Z,4.03
2022-11-16T23:33:45.619Z,3.57
2022-11-16T23:36:30.492Z,4.20
2022-11-16T23:39:15.505Z,3.97
2022-11-16T23:42:00.749Z,4.10
2022-11-16T23:44:45.778Z,4.60
2022-11-16T23:47:30.706Z,3.87
2022-11-16T23:50:15.763Z,4.20
2022-11-16T23:53:00.653Z,4.07
2022-11-16T23:55:45.444Z,4.50
2022-11-16T23:58:30.414Z,4.40
